createdAt,value
2016-11-23T00:00:53.061Z,95.17
2016-11-23T00:01:53.046Z,95.36
2016-11-23T00:02:53.036Z,94.98
2016-11-23T00:03:53.030Z,95.27
2016-11-23T00:04:53.018Z,95.27
2016-11-23T00:05:53.009Z,95.56
2016-11-23T00:06:53.028Z,96.17
2016-11-23T00:07:52.992Z,95.6
2016-11-23T00:08:53.024Z,95.79
2016-11-23T00:09:52.974Z,95.7
2016-11-23T00:10:52.962Z,95.98
2016-11-23T00:11:52.955Z,95.89
2016-11-23T00:12:52.949Z,95.89
2016-11-23T00:13:52.940Z,95.79
2016-11-23T00:14:52.929Z,96.08
2016-11-23T00:15:52.919Z,95.79
2016-11-23T00:16:52.911Z,95.89
2016-11-23T00:17:52.898Z,96.45
2016-11-23T00:18:52.895Z,96.08
2016-11-23T00:19:53.189Z,96.65
2016-11-23T00:20:52.881Z,96.22
2016-11-23T00:21:52.859Z,96.36
2016-11-23T00:22:52.851Z,96.31
2016-11-23T00:23:52.839Z,96.31
2016-11-23T00:24:52.839Z,96.98
2016-11-23T00:25:52.819Z,96.6
2016-11-23T00:26:52.816Z,96.88
2016-11-23T00:27:52.803Z,96.79
2016-11-23T00:28:52.798Z,97.07
2016-11-23T00:29:52.787Z,96.88
2016-11-23T00:30:52.774Z,96.98
2016-11-23T00:31:52.765Z,97.27
2016-11-23T00:32:52.757Z,97.17
2016-11-23T00:33:52.741Z,97.07
2016-11-23T00:34:52.738Z,97.07
2016-11-23T00:35:52.726Z,97.07
2016-11-23T00:36:52.720Z,97.55
2016-11-23T00:37:52.707Z,97.45
2016-11-23T00:38:52.697Z,97.27
2016-11-23T00:39:52.686Z,97.27
2016-11-23T00:40:52.672Z,97.27
2016-11-23T00:41:52.664Z,97.83
2016-11-23T00:42:52.653Z,97.45
2016-11-23T00:43:52.646Z,97.74
2016-11-23T00:44:52.639Z,97.41
2016-11-23T00:45:52.628Z,97.69
2016-11-23T00:46:52.611Z,97.6
2016-11-23T00:47:52.602Z,97.64
2016-11-23T00:48:52.594Z,98.12
2016-11-23T00:49:52.578Z,97.97
2016-11-23T00:50:52.570Z,97.69
2016-11-23T00:51:52.583Z,97.6
2016-11-23T00:52:52.556Z,97.5
2016-11-23T00:53:52.539Z,97.69
2016-11-23T00:54:52.534Z,97.78
2016-11-23T00:55:52.524Z,98.07
2016-11-23T00:56:52.817Z,98.35
2016-11-23T00:57:52.500Z,98.07
2016-11-23T00:58:52.492Z,98.07
2016-11-23T00:59:52.481Z,97.97
2016-11-23T01:00:52.473Z,97.97
2016-11-23T01:01:52.478Z,97.97
2016-11-23T01:02:52.448Z,98.16
2016-11-23T01:03:52.444Z,97.69
2016-11-23T01:04:52.431Z,98.07
2016-11-23T01:05:52.417Z,97.88
2016-11-23T01:06:52.406Z,97.69
2016-11-23T01:07:52.396Z,97.78
2016-11-23T01:08:52.383Z,97.97
2016-11-23T01:09:52.373Z,97.88
2016-11-23T01:10:52.371Z,98.07
2016-11-23T01:11:52.352Z,98.07
2016-11-23T01:12:52.347Z,97.88
2016-11-23T01:13:52.331Z,98.26
2016-11-23T01:14:52.326Z,98.35
2016-11-23T01:15:52.310Z,98.92
2016-11-23T01:16:52.301Z,98.64
2016-11-23T01:17:52.294Z,98.73
2016-11-23T01:18:52.283Z,98.64
2016-11-23T01:19:52.267Z,98.73
2016-11-23T01:20:52.261Z,98.45
2016-11-23T01:21:52.249Z,98.45
2016-11-23T01:22:52.235Z,98.64
2016-11-23T01:23:52.232Z,98.4
2016-11-23T01:24:52.218Z,98.64
2016-11-23T01:25:52.210Z,98.73
2016-11-23T01:26:52.195Z,98.83
2016-11-23T01:27:52.186Z,98.97
2016-11-23T01:28:52.177Z,98.49
2016-11-23T01:29:52.160Z,98.87
2016-11-23T01:30:52.153Z,98.78
2016-11-23T01:31:52.143Z,98.78
2016-11-23T01:32:52.131Z,98.87
2016-11-23T01:33:52.120Z,98.68
2016-11-23T01:34:52.111Z,98.59
2016-11-23T01:35:52.096Z,98.59
2016-11-23T01:36:52.085Z,98.83
2016-11-23T01:37:52.078Z,98.68
2016-11-23T01:38:52.067Z,98.83
2016-11-23T01:39:52.052Z,98.59
2016-11-23T01:40:52.046Z,98.78
2016-11-23T01:41:52.052Z,98.73
2016-11-23T01:42:52.025Z,98.68
2016-11-23T01:43:52.016Z,98.59
2016-11-23T01:44:52.002Z,98.68
2016-11-23T01:45:51.988Z,99.26
2016-11-23T01:46:51.981Z,98.87
2016-11-23T01:47:51.973Z,98.78
2016-11-23T01:48:51.954Z,98.59
2016-11-23T01:49:51.948Z,98.68
2016-11-23T01:50:51.941Z,98.68
2016-11-23T01:51:51.927Z,98.78
2016-11-23T01:52:51.916Z,98.87
2016-11-23T01:53:51.908Z,98.97
2016-11-23T01:54:51.892Z,98.97
2016-11-23T01:55:51.886Z,98.87
2016-11-23T01:56:51.875Z,98.87
2016-11-23T01:57:51.858Z,98.97
2016-11-23T01:58:51.850Z,98.78
2016-11-23T01:59:51.838Z,98.87
2016-11-23T02:00:51.831Z,98.87
2016-11-23T02:01:51.814Z,98.59
2016-11-23T02:02:51.807Z,98.87
2016-11-23T02:03:51.800Z,98.78
2016-11-23T02:04:51.782Z,98.87
2016-11-23T02:05:51.775Z,98.49
2016-11-23T02:06:51.759Z,98.59
2016-11-23T02:07:51.753Z,98.68
2016-11-23T02:08:51.745Z,99.06
2016-11-23T02:09:51.727Z,99.06
2016-11-23T02:10:51.721Z,99.16
2016-11-23T02:11:51.709Z,99.16
2016-11-23T02:12:51.696Z,99.06
2016-11-23T02:13:51.688Z,98.97
2016-11-23T02:14:51.679Z,98.87
2016-11-23T02:15:51.664Z,99.06
2016-11-23T02:16:51.656Z,99.06
2016-11-23T02:17:51.644Z,99.06
2016-11-23T02:18:51.630Z,98.97
2016-11-23T02:19:51.617Z,99.06
2016-11-23T02:20:51.615Z,99.3
2016-11-23T02:21:51.603Z,98.64
2016-11-23T02:22:51.590Z,98.54
2016-11-23T02:23:51.575Z,98.59
2016-11-23T02:24:51.567Z,98.92
2016-11-23T02:25:51.564Z,98.73
2016-11-23T02:26:51.550Z,99.4
2016-11-23T02:27:51.537Z,99.26
2016-11-23T02:28:51.523Z,99.02
2016-11-23T02:29:51.509Z,98.83
2016-11-23T02:30:51.500Z,98.64
2016-11-23T02:31:51.487Z,98.54
2016-11-23T02:32:51.482Z,98.64
2016-11-23T02:33:51.472Z,98.73
2016-11-23T02:34:51.456Z,98.73
2016-11-23T02:35:51.445Z,98.83
2016-11-23T02:36:51.436Z,99.02
2016-11-23T02:37:51.430Z,98.45
2016-11-23T02:38:51.421Z,98.73
2016-11-23T02:39:51.408Z,98.35
2016-11-23T02:40:51.400Z,98.68
2016-11-23T02:41:51.383Z,98.73
2016-11-23T02:42:51.394Z,98.92
2016-11-23T02:43:51.358Z,98.92
2016-11-23T02:44:51.351Z,98.78
2016-11-23T02:45:51.340Z,98.21
2016-11-23T02:46:51.328Z,98.64
2016-11-23T02:47:51.321Z,97.88
2016-11-23T02:48:51.311Z,97.92
2016-11-23T02:49:51.296Z,97.74
2016-11-23T02:50:51.285Z,97.92
2016-11-23T02:51:51.272Z,97.92
2016-11-23T02:52:51.264Z,97.74
2016-11-23T02:53:51.256Z,98.11
2016-11-23T02:54:51.244Z,98.02
2016-11-23T02:55:51.230Z,98.3
2016-11-23T02:56:51.577Z,98.21
2016-11-23T02:57:51.211Z,98.21
2016-11-23T02:58:51.200Z,98.21
2016-11-23T02:59:51.185Z,98.3
2016-11-23T03:00:51.178Z,98.3
2016-11-23T03:01:51.163Z,98.3
2016-11-23T03:02:51.152Z,97.74
2016-11-23T03:03:51.145Z,97.74
2016-11-23T03:04:51.136Z,97.74
2016-11-23T03:05:51.121Z,97.83
2016-11-23T03:06:51.112Z,98.49
2016-11-23T03:07:51.100Z,98.3
2016-11-23T03:08:51.099Z,98.3
2016-11-23T03:09:51.078Z,98.02
2016-11-23T03:10:51.069Z,97.64
2016-11-23T03:11:51.054Z,98.11
2016-11-23T03:12:51.048Z,97.83
2016-11-23T03:13:51.037Z,98.02
2016-11-23T03:14:51.065Z,97.92
2016-11-23T03:15:51.016Z,97.55
2016-11-23T03:16:51.007Z,98.11
2016-11-23T03:17:50.995Z,97.83
2016-11-23T03:18:50.980Z,97.92
2016-11-23T03:19:50.966Z,98.02
2016-11-23T03:20:50.960Z,98.02
2016-11-23T03:21:50.951Z,98.02
2016-11-23T03:22:50.940Z,98.02
2016-11-23T03:23:50.932Z,98.11
2016-11-23T03:24:51.216Z,97.74
2016-11-23T03:25:50.902Z,97.92
2016-11-23T03:26:50.894Z,98.25
2016-11-23T03:27:50.883Z,98.3
2016-11-23T03:28:50.865Z,98.16
2016-11-23T03:29:50.860Z,98.21
2016-11-23T03:30:50.844Z,98.87
2016-11-23T03:31:50.831Z,98.59
2016-11-23T03:32:50.823Z,98.68
2016-11-23T03:33:50.815Z,98.02
2016-11-23T03:34:50.805Z,98.78
2016-11-23T03:35:50.788Z,98.59
2016-11-23T03:36:50.782Z,98.49
2016-11-23T03:37:50.767Z,98.35
2016-11-23T03:38:50.762Z,98.97
2016-11-23T03:39:50.744Z,98.59
2016-11-23T03:40:50.737Z,98.59
2016-11-23T03:41:50.729Z,98.59
2016-11-23T03:42:50.712Z,98.78
2016-11-23T03:43:50.703Z,99.06
2016-11-23T03:44:50.692Z,98.78
2016-11-23T03:45:50.699Z,98.68
2016-11-23T03:46:50.668Z,98.68
2016-11-23T03:47:50.660Z,98.68
2016-11-23T03:48:50.643Z,98.68
2016-11-23T03:49:50.634Z,98.87
2016-11-23T03:50:50.627Z,98.68
2016-11-23T03:51:50.613Z,98.59
2016-11-23T03:52:50.596Z,98.49
2016-11-23T03:53:50.589Z,98.68
2016-11-23T03:54:50.578Z,98.68
2016-11-23T03:55:50.566Z,98.87
2016-11-23T03:56:50.556Z,98.97
2016-11-23T03:57:50.544Z,98.97
2016-11-23T03:58:50.541Z,98.3
2016-11-23T03:59:50.521Z,98.21
2016-11-23T04:00:50.509Z,98.4
2016-11-23T04:01:50.502Z,98.87
2016-11-23T04:02:50.490Z,98.49
2016-11-23T04:03:50.475Z,98.68
2016-11-23T04:04:50.462Z,98.59
2016-11-23T04:05:50.457Z,98.59
2016-11-23T04:06:50.446Z,97.83
2016-11-23T04:07:50.430Z,98.78
2016-11-23T04:08:50.418Z,98.87
2016-11-23T04:09:50.409Z,98.59
2016-11-23T04:10:50.395Z,98.59
2016-11-23T04:11:50.384Z,98.78
2016-11-23T04:12:50.373Z,99.06
2016-11-23T04:13:50.362Z,98.59
2016-11-23T04:14:50.355Z,98.87
2016-11-23T04:15:50.345Z,98.87
2016-11-23T04:16:50.333Z,98.4
2016-11-23T04:17:50.314Z,98.4
2016-11-23T04:18:50.309Z,98.49
2016-11-23T04:19:50.301Z,98.78
2016-11-23T04:20:50.284Z,98.4
2016-11-23T04:21:50.272Z,98.97
2016-11-23T04:22:50.262Z,98.87
2016-11-23T04:23:50.249Z,98.59
2016-11-23T04:24:50.242Z,99.06
2016-11-23T04:25:50.230Z,99.26
2016-11-23T04:26:50.220Z,98.78
2016-11-23T04:27:50.205Z,98.59
2016-11-23T04:28:50.196Z,98.59
2016-11-23T04:29:50.185Z,98.87
2016-11-23T04:30:50.172Z,98.59
2016-11-23T04:31:50.168Z,98.87
2016-11-23T04:32:50.152Z,98.49
2016-11-23T04:33:50.144Z,98.59
2016-11-23T04:34:50.131Z,98.68
2016-11-23T04:35:50.118Z,98.49
2016-11-23T04:36:50.107Z,98.78
2016-11-23T04:37:50.099Z,98.68
2016-11-23T04:38:50.088Z,99.06
2016-11-23T04:39:50.074Z,99.16
2016-11-23T04:40:50.063Z,98.68
2016-11-23T04:41:50.054Z,98.49
2016-11-23T04:42:50.047Z,98.68
2016-11-23T04:43:50.030Z,98.59
2016-11-23T04:44:50.016Z,98.59
2016-11-23T04:45:50.039Z,98.4
2016-11-23T04:46:49.995Z,98.4
2016-11-23T04:47:49.989Z,98.68
2016-11-23T04:48:49.976Z,98.59
2016-11-23T04:49:49.962Z,98.68
2016-11-23T04:50:49.952Z,98.3
2016-11-23T04:51:49.939Z,98.68
2016-11-23T04:52:49.930Z,98.59
2016-11-23T04:53:49.915Z,98.68
2016-11-23T04:54:49.910Z,98.59
2016-11-23T04:55:49.894Z,98.68
2016-11-23T04:56:49.888Z,98.97
2016-11-23T04:57:49.875Z,98.11
2016-11-23T04:58:49.866Z,98.21
2016-11-23T04:59:49.857Z,98.97
2016-11-23T05:00:49.845Z,98.3
2016-11-23T05:01:49.832Z,98.02
2016-11-23T05:02:49.820Z,98.3
2016-11-23T05:03:49.810Z,98.02
2016-11-23T05:04:49.793Z,98.16
2016-11-23T05:05:49.787Z,97.88
2016-11-23T05:06:49.777Z,97.97
2016-11-23T05:07:49.759Z,97.69
2016-11-23T05:08:49.748Z,98.16
2016-11-23T05:09:49.736Z,98.16
2016-11-23T05:10:49.728Z,98.25
2016-11-23T05:11:49.719Z,98.25
2016-11-23T05:12:49.705Z,97.88
2016-11-23T05:13:49.695Z,98.16
2016-11-23T05:14:49.685Z,98.16
2016-11-23T05:15:49.674Z,98.25
2016-11-23T05:16:49.668Z,98.25
2016-11-23T05:17:49.651Z,97.88
2016-11-23T05:18:49.644Z,97.88
2016-11-23T05:19:49.637Z,97.59
2016-11-23T05:20:49.614Z,97.88
2016-11-23T05:21:49.611Z,97.88
2016-11-23T05:22:49.623Z,97.88
2016-11-23T05:23:49.582Z,97.88
2016-11-23T05:24:49.569Z,98.25
2016-11-23T05:25:49.566Z,98.25
2016-11-23T05:26:49.547Z,97.88
2016-11-23T05:27:49.539Z,97.97
2016-11-23T05:28:49.523Z,97.88
2016-11-23T05:29:49.510Z,97.69
2016-11-23T05:30:49.505Z,98.35
2016-11-23T05:31:49.489Z,98.16
2016-11-23T05:32:49.480Z,98.16
2016-11-23T05:33:49.466Z,98.82
2016-11-23T05:34:49.461Z,98.16
2016-11-23T05:35:49.451Z,98.73
2016-11-23T05:36:49.430Z,98.82
2016-11-23T05:37:49.427Z,98.07
2016-11-23T05:38:49.414Z,98.92
2016-11-23T05:39:49.402Z,98.35
2016-11-23T05:40:49.387Z,98.35
2016-11-23T05:41:49.677Z,98.73
2016-11-23T05:42:49.366Z,98.63
2016-11-23T05:43:49.350Z,98.54
2016-11-23T05:44:49.346Z,98.35
2016-11-23T05:45:49.338Z,97.78
2016-11-23T05:46:49.622Z,98.63
2016-11-23T05:47:49.305Z,98.82
2016-11-23T05:48:49.297Z,98.44
2016-11-23T05:49:49.280Z,98.73
2016-11-23T05:50:49.272Z,98.82
2016-11-23T05:51:49.261Z,98.73
2016-11-23T05:52:49.246Z,98.82
2016-11-23T05:53:49.235Z,98.73
2016-11-23T05:54:49.221Z,98.82
2016-11-23T05:55:49.218Z,98.92
2016-11-23T05:56:49.203Z,98.82
2016-11-23T05:57:49.188Z,98.82
2016-11-23T05:58:49.178Z,98.73
2016-11-23T05:59:49.165Z,98.25
2016-11-23T06:00:49.155Z,97.78
2016-11-23T06:01:49.144Z,98.63
2016-11-23T06:02:49.137Z,98.54
2016-11-23T06:03:49.122Z,98.63
2016-11-23T06:04:49.107Z,98.44
2016-11-23T06:05:49.101Z,98.54
2016-11-23T06:06:49.085Z,98.63
2016-11-23T06:07:49.071Z,98.44
2016-11-23T06:08:49.064Z,98.63
2016-11-23T06:09:49.053Z,98.54
2016-11-23T06:10:49.041Z,98.63
2016-11-23T06:11:49.030Z,98.44
2016-11-23T06:12:49.017Z,98.25
2016-11-23T06:13:49.004Z,98.25
2016-11-23T06:14:48.996Z,98.73
2016-11-23T06:15:48.979Z,98.73
2016-11-23T06:16:48.975Z,98.16
2016-11-23T06:17:48.958Z,98.25
2016-11-23T06:18:48.945Z,97.97
2016-11-23T06:19:48.932Z,97.97
2016-11-23T06:20:49.235Z,97.69
2016-11-23T06:21:48.913Z,97.78
2016-11-23T06:22:48.901Z,97.97
2016-11-23T06:23:48.888Z,98.25
2016-11-23T06:24:48.873Z,97.88
2016-11-23T06:25:48.863Z,98.07
2016-11-23T06:26:48.849Z,98.92
2016-11-23T06:27:48.835Z,98.82
2016-11-23T06:28:48.827Z,98.82
2016-11-23T06:29:48.819Z,98.54
2016-11-23T06:30:48.801Z,98.73
2016-11-23T06:31:48.790Z,98.25
2016-11-23T06:32:48.786Z,98.07
2016-11-23T06:33:48.771Z,98.16
2016-11-23T06:34:48.761Z,98.16
2016-11-23T06:35:48.755Z,98.73
2016-11-23T06:36:48.738Z,98.92
2016-11-23T06:37:48.723Z,98.54
2016-11-23T06:38:48.713Z,98.54
2016-11-23T06:39:48.699Z,98.44
2016-11-23T06:40:48.685Z,98.54
2016-11-23T06:41:48.675Z,98.16
2016-11-23T06:42:48.664Z,98.54
2016-11-23T06:43:48.649Z,98.54
2016-11-23T06:44:48.639Z,98.63
2016-11-23T06:45:48.629Z,98.54
2016-11-23T06:46:48.619Z,98.63
2016-11-23T06:47:48.607Z,98.25
2016-11-23T06:48:48.592Z,98.25
2016-11-23T06:49:48.585Z,98.82
2016-11-23T06:50:48.574Z,98.35
2016-11-23T06:51:48.564Z,98.92
2016-11-23T06:52:48.546Z,98.25
2016-11-23T06:53:48.534Z,98.59
2016-11-23T06:54:48.530Z,98.44
2016-11-23T06:55:48.515Z,98.35
2016-11-23T06:56:48.501Z,98.82
2016-11-23T06:57:48.487Z,98.87
2016-11-23T06:58:48.475Z,98.68
2016-11-23T06:59:48.467Z,98.59
2016-11-23T07:00:48.453Z,98.68
2016-11-23T07:01:48.451Z,99.35
2016-11-23T07:02:48.435Z,99.26
2016-11-23T07:03:48.423Z,99.16
2016-11-23T07:04:48.411Z,99.16
2016-11-23T07:05:48.403Z,99.26
2016-11-23T07:06:48.392Z,98.87
2016-11-23T07:07:48.377Z,99.26
2016-11-23T07:08:48.371Z,98.87
2016-11-23T07:09:48.358Z,99.06
2016-11-23T07:10:48.347Z,99.06
2016-11-23T07:11:48.340Z,99.06
2016-11-23T07:12:48.318Z,99.26
2016-11-23T07:13:48.308Z,99.26
2016-11-23T07:14:48.297Z,98.73
2016-11-23T07:15:48.286Z,98.54
2016-11-23T07:16:48.278Z,98.73
2016-11-23T07:17:48.271Z,98.73
2016-11-23T07:18:48.260Z,98.64
2016-11-23T07:19:48.250Z,98.92
2016-11-23T07:20:48.238Z,98.73
2016-11-23T07:21:48.221Z,98.83
2016-11-23T07:22:48.213Z,98.54
2016-11-23T07:23:48.204Z,98.54
2016-11-23T07:24:48.195Z,98.73
2016-11-23T07:25:48.521Z,98.83
2016-11-23T07:26:48.176Z,99.02
2016-11-23T07:27:48.159Z,98.64
2016-11-23T07:28:48.145Z,98.45
2016-11-23T07:29:48.143Z,98.64
2016-11-23T07:30:48.134Z,98.79
2016-11-23T07:31:48.118Z,98.5
2016-11-23T07:32:48.111Z,98.02
2016-11-23T07:33:48.102Z,98.02
2016-11-23T07:34:48.085Z,98.02
2016-11-23T07:35:48.080Z,98.21
2016-11-23T07:36:48.066Z,97.83
2016-11-23T07:37:48.053Z,97.83
2016-11-23T07:38:48.045Z,97.83
2016-11-23T07:39:48.032Z,97.64
2016-11-23T07:40:48.024Z,97.55
2016-11-23T07:41:48.021Z,97.83
2016-11-23T07:42:48.004Z,97.74
2016-11-23T07:43:47.995Z,97.74
2016-11-23T07:44:47.988Z,97.5
2016-11-23T07:45:47.983Z,96.93
2016-11-23T07:46:47.967Z,96.74
2016-11-23T07:47:47.957Z,96.36
2016-11-23T07:48:47.954Z,96.36
2016-11-23T07:49:47.940Z,96.45
2016-11-23T07:50:47.927Z,96.08
2016-11-23T07:51:47.921Z,96.26
2016-11-23T07:52:47.909Z,96.45
2016-11-23T07:53:47.898Z,96.17
2016-11-23T07:54:47.886Z,95.75
2016-11-23T07:55:47.886Z,96.03
2016-11-23T07:56:47.873Z,96.03
2016-11-23T07:57:47.894Z,95.75
2016-11-23T07:58:48.163Z,95.75
2016-11-23T07:59:47.847Z,96.03
2016-11-23T08:00:47.832Z,95.08
2016-11-23T08:01:48.135Z,95.17
2016-11-23T08:02:47.819Z,95.36
2016-11-23T08:03:47.815Z,94.22
2016-11-23T08:04:47.798Z,94.7
2016-11-23T08:05:47.789Z,94.56
2016-11-23T08:06:47.779Z,94.46
2016-11-23T08:07:47.771Z,94.65
2016-11-23T08:08:47.760Z,94.93
2016-11-23T08:09:47.754Z,94.18
2016-11-23T08:10:47.751Z,93.6
2016-11-23T08:11:47.735Z,93.32
2016-11-23T08:12:47.728Z,93.51
2016-11-23T08:13:47.718Z,93.18
2016-11-23T08:14:47.710Z,93.23
2016-11-23T08:15:47.706Z,92.6
2016-11-23T08:16:47.690Z,92.79
2016-11-23T08:17:47.687Z,92.89
2016-11-23T08:18:47.678Z,92.22
2016-11-23T08:19:47.701Z,91.84
2016-11-23T08:20:47.658Z,92.22
2016-11-23T08:21:47.653Z,92.03
2016-11-23T08:22:47.643Z,91.94
2016-11-23T08:23:47.634Z,92.22
2016-11-23T08:24:47.628Z,92.03
2016-11-23T08:25:47.628Z,91.94
2016-11-23T08:26:47.612Z,91.84
2016-11-23T08:27:47.608Z,92.13
2016-11-23T08:28:47.599Z,91.89
2016-11-23T08:29:47.592Z,91.7
2016-11-23T08:30:47.581Z,91.6
2016-11-23T08:31:47.576Z,90.94
2016-11-23T08:32:47.566Z,91.22
2016-11-23T08:33:47.582Z,91.03
2016-11-23T08:34:47.555Z,91.13
2016-11-23T08:35:47.543Z,90.65
2016-11-23T08:36:47.537Z,90.22
2016-11-23T08:37:47.529Z,90.98
2016-11-23T08:38:47.520Z,90.7
2016-11-23T08:39:47.513Z,90.31
2016-11-23T08:40:47.508Z,90.31
2016-11-23T08:41:47.502Z,89.4
2016-11-23T08:42:47.498Z,89.69
2016-11-23T08:43:47.488Z,88.93
2016-11-23T08:44:47.474Z,88.64
2016-11-23T08:45:47.473Z,88.74
2016-11-23T08:46:47.462Z,88.64
2016-11-23T08:47:47.454Z,88.64
2016-11-23T08:48:47.452Z,88.45
2016-11-23T08:49:47.444Z,88.4
2016-11-23T08:50:47.439Z,87.74
2016-11-23T08:51:47.431Z,87.74
2016-11-23T08:52:47.426Z,87.07
2016-11-23T08:53:47.421Z,87.07
2016-11-23T08:54:47.412Z,86.4
2016-11-23T08:55:47.407Z,85.54
2016-11-23T08:56:47.402Z,85.54
2016-11-23T08:57:47.394Z,85.25
2016-11-23T08:58:47.382Z,85.06
2016-11-23T08:59:47.381Z,85.58
2016-11-23T09:00:47.370Z,84.88
2016-11-23T09:01:47.365Z,85.06
2016-11-23T09:02:47.361Z,85.06
2016-11-23T09:03:47.352Z,85.25
2016-11-23T09:04:47.351Z,85.21
2016-11-23T09:05:47.344Z,84.92
2016-11-23T09:06:47.337Z,85.11
2016-11-23T09:07:47.326Z,84.82
2016-11-23T09:08:47.630Z,84.53
2016-11-23T09:09:47.321Z,84.44
2016-11-23T09:10:47.310Z,84.25
2016-11-23T09:11:47.305Z,84.34
2016-11-23T09:12:47.296Z,84.44
2016-11-23T09:13:47.294Z,83.87
2016-11-23T09:14:47.291Z,84.06
2016-11-23T09:15:47.284Z,83.87
2016-11-23T09:16:47.279Z,83.67
2016-11-23T09:17:47.269Z,83.77
2016-11-23T09:18:47.264Z,83.87
2016-11-23T09:19:47.261Z,83.96
2016-11-23T09:20:47.252Z,83.77
2016-11-23T09:21:47.249Z,83.77
2016-11-23T09:22:47.238Z,83.96
2016-11-23T09:23:47.232Z,83.77
2016-11-23T09:24:47.227Z,83.67
2016-11-23T09:25:47.224Z,83.87
2016-11-23T09:26:47.220Z,83.96
2016-11-23T09:27:47.212Z,83.96
2016-11-23T09:28:47.204Z,83.96
2016-11-23T09:29:47.198Z,83.11
2016-11-23T09:30:47.197Z,82.82
2016-11-23T09:31:47.184Z,83.01
2016-11-23T09:32:47.186Z,83.2
2016-11-23T09:33:47.205Z,83.2
2016-11-23T09:34:47.165Z,82.34
2016-11-23T09:35:47.158Z,82.91
2016-11-23T09:36:47.479Z,82.82
2016-11-23T09:37:47.150Z,83.2
2016-11-23T09:38:47.143Z,83.2
2016-11-23T09:39:47.136Z,83.39
2016-11-23T09:40:47.132Z,83.77
2016-11-23T09:41:47.133Z,84.25
2016-11-23T09:42:47.126Z,84.16
2016-11-23T09:43:47.117Z,83.58
2016-11-23T09:44:47.111Z,83.77
2016-11-23T09:45:47.109Z,83.67
2016-11-23T09:46:47.100Z,84.06
2016-11-23T09:47:47.089Z,83.48
2016-11-23T09:48:47.087Z,84.06
2016-11-23T09:49:47.077Z,83.77
2016-11-23T09:50:47.071Z,83.39
2016-11-23T09:51:47.069Z,83.87
2016-11-23T09:52:47.063Z,83.87
2016-11-23T09:53:47.058Z,83.29
2016-11-23T09:54:47.053Z,83.96
2016-11-23T09:55:47.048Z,84.44
2016-11-23T09:56:47.045Z,83.58
2016-11-23T09:57:47.039Z,84.25
2016-11-23T09:58:47.037Z,84.53
2016-11-23T09:59:47.023Z,83.87
2016-11-23T10:00:47.018Z,83.67
2016-11-23T10:01:47.011Z,83.87
2016-11-23T10:02:47.001Z,83.87
2016-11-23T10:03:46.998Z,83.39
2016-11-23T10:04:46.992Z,83.73
2016-11-23T10:05:46.989Z,84.4
2016-11-23T10:06:46.983Z,84.4
2016-11-23T10:07:46.978Z,84.59
2016-11-23T10:08:46.969Z,84.78
2016-11-23T10:09:46.964Z,85.06
2016-11-23T10:10:46.962Z,84.88
2016-11-23T10:11:46.946Z,85.25
2016-11-23T10:12:46.944Z,85.25
2016-11-23T10:13:46.938Z,85.25
2016-11-23T10:14:46.932Z,85.16
2016-11-23T10:15:46.925Z,85.06
2016-11-23T10:16:46.924Z,85.25
2016-11-23T10:17:46.909Z,85.64
2016-11-23T10:18:46.911Z,85.83
2016-11-23T10:19:46.898Z,85.16
2016-11-23T10:20:46.896Z,85.45
2016-11-23T10:21:47.192Z,85.25
2016-11-23T10:22:46.882Z,85.64
2016-11-23T10:23:46.877Z,85.54
2016-11-23T10:24:46.870Z,84.78
2016-11-23T10:25:46.868Z,84.97
2016-11-23T10:26:46.859Z,85.06
2016-11-23T10:27:46.862Z,85.06
2016-11-23T10:28:46.854Z,85.45
2016-11-23T10:29:46.839Z,85.45
2016-11-23T10:30:46.830Z,85.83
2016-11-23T10:31:46.826Z,85.64
2016-11-23T10:32:46.821Z,85.45
2016-11-23T10:33:46.818Z,85.35
2016-11-23T10:34:46.810Z,85.16
2016-11-23T10:35:46.800Z,84.97
2016-11-23T10:36:46.791Z,84.97
2016-11-23T10:37:46.793Z,84.78
2016-11-23T10:38:46.784Z,84.59
2016-11-23T10:39:46.775Z,84.88
2016-11-23T10:40:47.081Z,85.16
2016-11-23T10:41:46.767Z,85.21
2016-11-23T10:42:46.753Z,85.01
2016-11-23T10:43:46.754Z,85.49
2016-11-23T10:44:46.750Z,85.58
2016-11-23T10:45:46.738Z,85.01
2016-11-23T10:46:46.732Z,85.49
2016-11-23T10:47:46.732Z,85.49
2016-11-23T10:48:46.721Z,85.49
2016-11-23T10:49:46.746Z,85.68
2016-11-23T10:50:46.708Z,85.77
2016-11-23T10:51:46.705Z,85.58
2016-11-23T10:52:46.699Z,85.77
2016-11-23T10:53:46.687Z,85.68
2016-11-23T10:54:46.683Z,85.45
2016-11-23T10:55:46.681Z,86.02
2016-11-23T10:56:46.676Z,85.73
2016-11-23T10:57:46.660Z,85.93
2016-11-23T10:58:46.660Z,86.02
2016-11-23T10:59:46.650Z,86.02
2016-11-23T11:00:46.673Z,86.02
2016-11-23T11:01:46.641Z,86.3
2016-11-23T11:02:46.631Z,86.4
2016-11-23T11:03:46.623Z,86.3
2016-11-23T11:04:46.620Z,86.3
2016-11-23T11:05:46.916Z,86.21
2016-11-23T11:06:46.610Z,86.49
2016-11-23T11:07:46.904Z,86.49
2016-11-23T11:08:46.590Z,86.88
2016-11-23T11:09:46.585Z,86.69
2016-11-23T11:10:46.586Z,86.88
2016-11-23T11:11:46.582Z,86.69
2016-11-23T11:12:46.570Z,87.07
2016-11-23T11:13:46.565Z,86.78
2016-11-23T11:14:46.554Z,86.69
2016-11-23T11:15:46.560Z,86.88
2016-11-23T11:16:46.549Z,86.88
2016-11-23T11:17:46.535Z,86.98
2016-11-23T11:18:46.534Z,86.98
2016-11-23T11:19:46.524Z,87.16
2016-11-23T11:20:46.514Z,87.07
2016-11-23T11:21:46.509Z,87.54
2016-11-23T11:22:46.498Z,87.16
2016-11-23T11:23:46.497Z,87.74
2016-11-23T11:24:46.490Z,87.64
2016-11-23T11:25:46.480Z,87.83
2016-11-23T11:26:46.477Z,87.83
2016-11-23T11:27:46.470Z,87.54
2016-11-23T11:28:46.467Z,87.74
2016-11-23T11:29:46.461Z,87.26
2016-11-23T11:30:46.452Z,87.83
2016-11-23T11:31:46.444Z,88.02
2016-11-23T11:32:46.437Z,87.74
2016-11-23T11:33:46.433Z,88.12
2016-11-23T11:34:46.438Z,88.31
2016-11-23T11:35:46.417Z,88.31
2016-11-23T11:36:46.414Z,88.74
2016-11-23T11:37:46.404Z,88.59
2016-11-23T11:38:46.397Z,88.88
2016-11-23T11:39:46.396Z,88.59
2016-11-23T11:40:46.383Z,88.55
2016-11-23T11:41:46.376Z,88.5
2016-11-23T11:42:46.368Z,88.55
2016-11-23T11:43:46.367Z,88.07
2016-11-23T11:44:46.360Z,88.36
2016-11-23T11:45:46.355Z,88.74
2016-11-23T11:46:46.351Z,88.74
2016-11-23T11:47:46.334Z,88.74
2016-11-23T11:48:46.328Z,88.45
2016-11-23T11:49:46.327Z,88.45
2016-11-23T11:50:46.319Z,88.55
2016-11-23T11:51:46.310Z,88.55
2016-11-23T11:52:46.304Z,88.55
2016-11-23T11:53:46.293Z,88.55
2016-11-23T11:54:46.293Z,88.26
2016-11-23T11:55:46.287Z,88.55
2016-11-23T11:56:46.275Z,88.45
2016-11-23T11:57:46.267Z,88.45
2016-11-23T11:58:46.263Z,88.55
2016-11-23T11:59:46.256Z,88.45
2016-11-23T12:00:46.247Z,88.36
2016-11-23T12:01:46.247Z,88.55
2016-11-23T12:02:46.237Z,88.45
2016-11-23T12:03:46.229Z,88.45
2016-11-23T12:04:46.525Z,88.55
2016-11-23T12:05:46.217Z,88.55
2016-11-23T12:06:46.211Z,88.55
2016-11-23T12:07:46.198Z,88.55
2016-11-23T12:08:46.195Z,88.45
2016-11-23T12:09:46.187Z,88.64
2016-11-23T12:10:46.179Z,88.55
2016-11-23T12:11:46.172Z,88.64
2016-11-23T12:12:46.174Z,88.59
2016-11-23T12:13:46.159Z,88.78
2016-11-23T12:14:46.158Z,88.98
2016-11-23T12:15:46.144Z,88.59
2016-11-23T12:16:46.140Z,88.59
2016-11-23T12:17:46.139Z,88.21
2016-11-23T12:18:46.127Z,88.4
2016-11-23T12:19:46.122Z,88.31
2016-11-23T12:20:46.118Z,87.83
2016-11-23T12:21:46.108Z,87.45
2016-11-23T12:22:46.099Z,87.74
2016-11-23T12:23:46.097Z,87.83
2016-11-23T12:24:46.086Z,87.83
2016-11-23T12:25:46.083Z,88.12
2016-11-23T12:26:46.071Z,87.74
2016-11-23T12:27:46.066Z,87.93
2016-11-23T12:28:46.063Z,87.83
2016-11-23T12:29:46.056Z,87.74
2016-11-23T12:30:46.356Z,87.74
2016-11-23T12:31:46.036Z,88.02
2016-11-23T12:32:46.036Z,87.54
2016-11-23T12:33:46.025Z,87.83
2016-11-23T12:34:46.018Z,87.54
2016-11-23T12:35:46.016Z,87.54
2016-11-23T12:36:46.005Z,87.26
2016-11-23T12:37:46.003Z,87.74
2016-11-23T12:38:45.997Z,87.83
2016-11-23T12:39:45.991Z,87.93
2016-11-23T12:40:45.990Z,88.02
2016-11-23T12:41:45.970Z,87.54
2016-11-23T12:42:45.965Z,87.74
2016-11-23T12:43:45.961Z,87.74
2016-11-23T12:44:45.953Z,87.64
2016-11-23T12:45:45.949Z,87.93
2016-11-23T12:46:45.937Z,87.26
2016-11-23T12:47:45.938Z,87.26
2016-11-23T12:48:45.930Z,87.35
2016-11-23T12:49:45.927Z,87.64
2016-11-23T12:50:45.917Z,87.16
2016-11-23T12:51:45.907Z,87.45
2016-11-23T12:52:45.901Z,86.98
2016-11-23T12:53:45.897Z,87.35
2016-11-23T12:54:45.891Z,87.35